Time;durP1;ratioP1;P1;durP2;ratioP2;P2;SDS_P1;SDS_P2;PMS_P1;PMS_P2;Temp;Humidity;BMP_temperature;BMP_pressure;BME280_temperature;BME280_humidity;BME280_pressure;Samples;Min_cycle;Max_cycle;Signal;HPM_P1;HPM_P2
2021/08/14 00:01:27;;;;;;;7.28;6.35;;;;;;;18.70;68.29;96326.34;5096786;28;20647;-76
2021/08/14 00:03:53;;;;;;;8.43;6.75;;;;;;;18.64;68.49;96325.19;5079620;28;20175;-75
2021/08/14 00:06:18;;;;;;;7.70;6.78;;;;;;;18.62;68.27;96330.66;5096877;28;20203;-76
2021/08/14 00:08:44;;;;;;;8.07;6.78;;;;;;;18.60;68.24;96324.75;5115091;28;20179;-75
2021/08/14 00:11:10;;;;;;;6.85;6.18;;;;;;;18.57;68.82;96326.94;5096677;28;20172;-75
2021/08/14 00:13:35;;;;;;;8.43;6.45;;;;;;;18.55;68.93;96334.16;5096593;28;20669;-75
2021/08/14 00:16:01;;;;;;;7.43;6.65;;;;;;;18.53;68.94;96333.53;5079575;28;20575;-75
2021/08/14 00:18:26;;;;;;;7.65;6.63;;;;;;;18.46;68.98;96333.41;5114808;28;20183;-75
2021/08/14 00:20:52;;;;;;;9.02;7.10;;;;;;;18.45;68.94;96321.25;5114805;28;20168;-75
2021/08/14 00:23:17;;;;;;;8.38;6.97;;;;;;;18.43;69.05;96317.19;5096331;28;20289;-76
2021/08/14 00:25:42;;;;;;;8.43;7.03;;;;;;;18.37;69.31;96316.88;5096328;28;20168;-76
2021/08/14 00:28:08;;;;;;;7.80;6.30;;;;;;;18.38;69.51;96320.38;5079373;28;20584;-76
2021/08/14 00:30:33;;;;;;;9.88;7.25;;;;;;;18.34;69.85;96314.63;5096466;28;20184;-75
2021/08/14 00:32:59;;;;;;;8.32;6.68;;;;;;;18.33;69.77;96306.91;5096143;28;20199;-76
2021/08/14 00:35:24;;;;;;;15.13;7.15;;;;;;;18.32;69.81;96313.19;5114527;28;20259;-75
2021/08/14 00:37:49;;;;;;;8.55;7.03;;;;;;;18.24;69.96;96308.78;5095912;28;20215;-75
2021/08/14 00:40:15;;;;;;;7.72;6.93;;;;;;;18.18;70.30;96313.94;5096090;28;20779;-75
2021/08/14 00:42:40;;;;;;;8.50;7.13;;;;;;;18.21;70.30;96308.34;5114067;28;20666;-75
2021/08/14 00:45:06;;;;;;;9.93;7.20;;;;;;;18.21;70.42;96305.72;5079224;28;20199;-76
2021/08/14 00:47:31;;;;;;;8.43;6.47;;;;;;;18.17;70.31;96299.16;5096034;28;20225;-75
2021/08/14 00:49:57;;;;;;;11.07;7.07;;;;;;;18.18;70.52;96303.41;5096000;28;20164;-76
2021/08/14 00:52:22;;;;;;;7.32;6.60;;;;;;;18.24;70.32;96308.78;5078852;28;20180;-76
2021/08/14 00:54:48;;;;;;;8.73;7.25;;;;;;;18.20;70.17;96293.53;5095954;28;20251;-75
2021/08/14 00:57:14;;;;;;;7.85;6.97;;;;;;;18.18;70.22;96295.53;5109456;27;20241;-75
2021/08/14 00:59:39;;;;;;;7.72;6.93;;;;;;;18.16;70.42;96293.09;5134358;27;20272;-76
2021/08/14 01:02:06;;;;;;;7.25;6.55;;;;;;;18.13;70.45;96292.63;5098801;27;20270;-75
2021/08/14 01:04:31;;;;;;;7.40;6.55;;;;;;;18.10;70.70;96288.53;5116116;27;20652;-75
2021/08/14 01:06:58;;;;;;;9.00;6.72;;;;;;;17.99;71.39;96286.31;5115797;27;20191;-75
2021/08/14 01:09:25;;;;;;;9.13;7.40;;;;;;;18.03;71.07;96291.06;5097890;27;20182;-75
2021/08/14 01:11:50;;;;;;;10.23;6.90;;;;;;;18.00;70.88;96286.13;5134139;27;20241;-75
2021/08/14 01:14:15;;;;;;;9.00;7.45;;;;;;;18.03;70.79;96285.00;5134127;27;20179;-75
2021/08/14 01:16:41;;;;;;;9.55;7.07;;;;;;;18.04;70.94;96287.44;5115824;27;20207;-75
2021/08/14 01:19:07;;;;;;;9.65;6.80;;;;;;;18.04;70.83;96287.44;5115801;27;20175;-76
2021/08/14 01:21:32;;;;;;;8.18;7.28;;;;;;;18.02;70.70;96289.44;5115676;27;20254;-75
2021/08/14 01:23:58;;;;;;;7.93;7.20;;;;;;;18.01;70.66;96289.59;5133920;27;20171;-75
2021/08/14 01:26:23;;;;;;;7.88;7.05;;;;;;;17.96;70.77;96284.88;5133962;27;20191;-75
2021/08/14 01:28:50;;;;;;;8.75;7.22;;;;;;;17.91;71.47;96278.50;5115603;27;20210;-75
2021/08/14 01:31:16;;;;;;;12.15;7.50;;;;;;;17.85;71.87;96281.84;5133719;27;20175;-75
2021/08/14 01:33:43;;;;;;;7.68;6.75;;;;;;;17.81;72.21;96279.53;5115603;27;20254;-75
2021/08/14 01:36:10;;;;;;;8.82;7.13;;;;;;;17.72;72.62;96269.25;5098405;27;20233;-75
2021/08/14 01:38:47;;;;;;;8.35;7.45;;;;;;;17.73;72.37;96273.53;5098300;27;20747;-76
2021/08/14 01:41:12;;;;;;;10.85;6.95;;;;;;;17.70;72.42;96271.25;5115366;27;20167;-76
2021/08/14 01:44:05;;;;;;;8.15;7.13;;;;;;;17.61;72.56;96267.81;5115100;27;20178;-75
2021/08/14 01:46:32;;;;;;;8.48;7.05;;;;;;;17.60;72.51;96273.25;5115229;27;20198;-75
2021/08/14 01:48:58;;;;;;;10.10;6.85;;;;;;;17.58;72.87;96276.06;5115119;27;20173;-76
2021/08/14 01:51:24;;;;;;;10.07;7.00;;;;;;;17.56;72.50;96272.78;5114829;27;20265;-75
2021/08/14 01:53:51;;;;;;;8.93;6.88;;;;;;;17.50;72.77;96273.47;5115339;27;20202;-75
2021/08/14 01:56:18;;;;;;;8.52;7.28;;;;;;;17.51;72.62;96275.13;5115058;27;20233;-75
2021/08/14 01:58:43;;;;;;;9.27;6.82;;;;;;;17.45;72.78;96271.34;5115054;27;20171;-75
2021/08/14 02:01:09;;;;;;;7.50;6.78;;;;;;;17.37;73.51;96268.78;5114990;27;20235;-73
2021/08/14 02:03:35;;;;;;;10.20;6.95;;;;;;;17.30;74.21;96272.25;5114911;27;20642;-74
2021/08/14 02:06:02;;;;;;;7.90;7.10;;;;;;;17.23;73.99;96267.72;5097787;27;20191;-75
2021/08/14 02:08:27;;;;;;;8.43;6.90;;;;;;;17.28;74.37;96264.56;5115138;27;20254;-75
2021/08/14 02:10:53;;;;;;;7.32;6.63;;;;;;;17.21;74.09;96267.03;5114896;27;20258;-74
2021/08/14 02:13:18;;;;;;;8.98;6.07;;;;;;;17.12;74.81;96264.63;5114792;27;20270;-75
2021/08/14 02:15:43;;;;;;;7.78;6.88;;;;;;;17.09;74.63;96260.53;5114500;27;20526;-75
2021/08/14 02:18:08;;;;;;;8.23;6.70;;;;;;;17.03;74.93;96258.59;5133047;27;20183;-76
2021/08/14 02:20:34;;;;;;;8.93;7.13;;;;;;;16.96;75.32;96262.88;5097405;27;20216;-75
2021/08/14 02:22:59;;;;;;;7.50;6.65;;;;;;;16.95;75.11;96256.81;5097426;27;20175;-75
2021/08/14 02:25:24;;;;;;;7.70;6.57;;;;;;;16.98;75.02;96263.56;5133020;27;20171;-75
2021/08/14 02:27:50;;;;;;;10.35;7.55;;;;;;;16.98;74.65;96259.13;5114642;27;20194;-75
2021/08/14 02:30:15;;;;;;;7.38;6.57;;;;;;;16.98;74.81;96260.94;5114465;27;20530;-75
2021/08/14 02:32:40;;;;;;;8.75;6.90;;;;;;;16.97;74.72;96257.47;5097323;27;20198;-76
2021/08/14 02:35:06;;;;;;;9.57;7.32;;;;;;;16.93;74.74;96260.59;5132818;27;20178;-75
2021/08/14 02:37:31;;;;;;;9.40;7.00;;;;;;;16.91;74.69;96257.34;5114397;28;20221;-76
2021/08/14 02:39:56;;;;;;;7.78;6.47;;;;;;;16.95;74.88;96258.63;5114334;27;20179;-75
2021/08/14 02:42:22;;;;;;;9.48;6.78;;;;;;;16.96;74.72;96260.25;5114194;28;20171;-74
2021/08/14 02:44:47;;;;;;;7.15;6.15;;;;;;;16.94;74.41;96254.38;5114253;28;20199;-75
2021/08/14 02:47:12;;;;;;;7.43;6.25;;;;;;;16.96;74.27;96255.00;5114348;28;20685;-75
2021/08/14 02:49:38;;;;;;;8.50;7.38;;;;;;;16.98;74.25;96255.69;5132491;28;20620;-75
2021/08/14 02:52:03;;;;;;;8.32;6.88;;;;;;;16.98;73.94;96255.69;5114197;28;20175;-75
2021/08/14 02:54:28;;;;;;;8.05;6.97;;;;;;;16.92;74.65;96248.47;5132750;28;20186;-76
2021/08/14 02:56:54;;;;;;;9.60;7.05;;;;;;;16.83;75.30;96247.69;5132535;28;20573;-75
2021/08/14 02:59:19;;;;;;;9.15;8.00;;;;;;;16.80;75.46;96255.09;5132467;28;20202;-75
2021/08/14 03:01:44;;;;;;;7.95;7.15;;;;;;;16.79;74.94;96251.66;5113790;28;20224;-76
2021/08/14 03:04:10;;;;;;;7.10;6.40;;;;;;;16.84;74.89;96251.94;5114139;28;20634;-76
2021/08/14 03:06:35;;;;;;;7.97;6.82;;;;;;;16.78;75.07;96244.75;5113935;28;20698;-75
2021/08/14 03:09:00;;;;;;;10.30;6.75;;;;;;;16.77;74.92;96250.16;5132621;28;20178;-75
2021/08/14 03:11:26;;;;;;;8.23;6.28;;;;;;;16.79;75.04;96248.22;5132151;28;20176;-75
2021/08/14 03:13:51;;;;;;;9.18;7.50;;;;;;;16.82;75.26;96250.47;5114081;28;20179;-74
2021/08/14 03:16:16;;;;;;;8.15;7.28;;;;;;;16.80;74.98;96240.16;5113859;28;20248;-75
2021/08/14 03:18:42;;;;;;;11.30;6.85;;;;;;;16.84;75.32;96245.88;5096928;28;20174;-75
2021/08/14 03:21:07;;;;;;;7.85;7.03;;;;;;;16.83;75.38;96252.13;5097027;28;20172;-75
2021/08/14 03:23:32;;;;;;;8.82;6.80;;;;;;;16.78;75.62;96247.38;5132219;28;20187;-75
2021/08/14 03:25:57;;;;;;;7.30;6.55;;;;;;;16.77;75.39;96239.66;5114027;28;20198;-76
2021/08/14 03:28:23;;;;;;;7.40;6.65;;;;;;;16.73;75.58;96254.13;5114040;28;20171;-75
2021/08/14 03:30:48;;;;;;;7.93;7.10;;;;;;;16.69;75.33;96243.94;5114160;27;20521;-75
2021/08/14 03:33:40;;;;;;;8.82;6.25;;;;;;;16.73;75.55;96254.13;5100528;27;20634;-75
2021/08/14 03:36:05;;;;;;;7.93;7.10;;;;;;;16.80;75.03;96245.41;5032871;28;20229;-76
2021/08/14 03:38:30;;;;;;;10.75;7.15;;;;;;;16.86;75.23;96236.03;5032661;28;20555;-75
2021/08/14 03:40:56;;;;;;;9.55;7.63;;;;;;;16.87;74.86;96242.91;5032543;28;20191;-75
2021/08/14 03:43:21;;;;;;;7.40;6.38;;;;;;;16.88;74.87;96236.69;5032524;28;20174;-75
2021/08/14 03:45:47;;;;;;;8.07;7.28;;;;;;;16.86;74.87;96236.03;5015661;28;20186;-75
2021/08/14 03:48:12;;;;;;;8.02;7.22;;;;;;;16.82;75.18;96232.13;5015926;28;20195;-75
2021/08/14 03:50:38;;;;;;;9.00;6.72;;;;;;;16.72;75.53;96228.88;5015762;28;20202;-75
2021/08/14 03:53:03;;;;;;;8.20;7.38;;;;;;;16.68;75.50;96229.19;5015636;28;20194;-75
2021/08/14 03:55:29;;;;;;;7.90;7.10;;;;;;;16.62;75.78;96224.63;5015836;28;20569;-75
2021/08/14 03:57:54;;;;;;;7.90;6.78;;;;;;;16.57;75.85;96224.28;5032100;28;20209;-75
2021/08/14 04:00:19;;;;;;;8.68;7.18;;;;;;;16.55;76.23;96228.91;5015543;28;20214;-76
2021/08/14 04:02:45;;;;;;;7.70;6.93;;;;;;;16.53;76.33;96232.69;5015402;28;20240;-75
2021/08/14 04:05:10;;;;;;;9.10;7.50;;;;;;;16.55;76.33;96231.53;5032180;28;20178;-75
2021/08/14 04:07:36;;;;;;;10.15;7.15;;;;;;;16.55;76.60;96228.91;5015330;28;20202;-75
2021/08/14 04:10:01;;;;;;;7.22;6.53;;;;;;;16.50;76.94;96233.81;5032166;28;20686;-76
2021/08/14 04:12:26;;;;;;;9.30;6.45;;;;;;;16.49;76.88;96226.94;5041324;28;20655;-75
2021/08/14 04:14:52;;;;;;;9.95;7.13;;;;;;;16.46;76.80;96232.53;5133487;27;20163;-75
2021/08/14 04:17:17;;;;;;;8.82;7.85;;;;;;;16.43;76.79;96230.22;5116919;27;20213;-75
2021/08/14 04:19:42;;;;;;;7.78;6.97;;;;;;;16.44;76.88;96231.88;5099945;27;20176;-75
2021/08/14 04:22:07;;;;;;;8.23;7.32;;;;;;;16.46;77.14;96234.31;5116690;27;20176;-75
2021/08/14 04:24:33;;;;;;;7.68;6.97;;;;;;;16.48;77.04;96233.16;5099777;27;20650;-76
2021/08/14 04:26:58;;;;;;;9.10;7.30;;;;;;;16.57;76.42;96226.91;5116831;27;20217;-75
2021/08/14 04:29:24;;;;;;;9.50;6.97;;;;;;;16.57;76.31;96232.16;5116714;27;20171;-75
2021/08/14 04:31:49;;;;;;;8.20;6.90;;;;;;;16.64;76.03;96229.69;5116414;27;20250;-76
2021/08/14 04:34:15;;;;;;;8.38;7.53;;;;;;;16.63;76.34;96231.50;5116741;27;20248;-75
2021/08/14 04:36:40;;;;;;;10.25;7.45;;;;;;;16.67;75.63;96224.09;5099447;27;20720;-75
2021/08/14 04:39:05;;;;;;;8.48;7.20;;;;;;;16.76;75.39;96230.16;5134958;27;20564;-75
2021/08/14 04:41:30;;;;;;;9.68;7.35;;;;;;;16.83;74.89;96233.75;5116227;27;20179;-75
2021/08/14 04:43:56;;;;;;;9.15;6.80;;;;;;;16.84;75.63;96227.53;5134808;27;20183;-76
2021/08/14 04:46:21;;;;;;;7.93;6.53;;;;;;;16.92;75.11;96228.31;5116374;27;20199;-76
2021/08/14 04:48:46;;;;;;;9.77;6.90;;;;;;;16.96;74.88;96234.00;5099257;27;20531;-75
2021/08/14 04:51:12;;;;;;;7.65;6.88;;;;;;;17.05;74.59;96237.44;5116127;27;20210;-76
2021/08/14 04:53:37;;;;;;;8.25;7.03;;;;;;;17.09;74.40;96233.50;5116506;27;20179;-75
2021/08/14 04:56:02;;;;;;;9.82;6.93;;;;;;;17.16;73.46;96224.75;5116165;27;20252;-75
2021/08/14 04:58:27;;;;;;;7.90;7.10;;;;;;;17.29;72.81;96229.44;5116239;27;20204;-76
2021/08/14 05:00:53;;;;;;;10.25;6.97;;;;;;;17.37;72.73;96233.84;5134678;27;20232;-75
2021/08/14 05:03:18;;;;;;;7.95;6.72;;;;;;;17.53;72.46;96236.38;5099309;27;20239;-76
2021/08/14 05:05:44;;;;;;;7.82;6.50;;;;;;;17.54;72.34;96230.94;5116148;27;20175;-76
2021/08/14 05:08:09;;;;;;;7.50;6.65;;;;;;;17.76;71.80;96237.22;5099226;27;20171;-75
2021/08/14 05:10:35;;;;;;;8.50;6.88;;;;;;;18.07;70.61;96236.31;5135028;27;20718;-76
2021/08/14 05:13:00;;;;;;;7.13;6.43;;;;;;;18.38;69.07;96230.97;5115832;27;20167;-75
2021/08/14 05:15:25;;;;;;;6.80;6.10;;;;;;;18.76;68.39;96237.00;5099105;27;20667;-75
2021/08/14 05:17:51;;;;;;;8.00;6.45;;;;;;;18.79;67.46;96239.25;5115920;27;20701;-73
2021/08/14 05:20:16;;;;;;;10.18;6.85;;;;;;;18.85;68.27;96235.91;5115650;27;20183;-74
2021/08/14 05:22:41;;;;;;;7.63;6.38;;;;;;;18.92;68.20;96236.81;5115354;27;20175;-75
2021/08/14 05:25:07;;;;;;;7.72;6.28;;;;;;;19.03;67.84;96235.53;5134215;27;20202;-73
2021/08/14 05:27:32;;;;;;;9.18;6.45;;;;;;;19.20;67.05;96242.22;5133895;27;20220;-73
2021/08/14 05:29:58;;;;;;;7.85;6.95;;;;;;;19.14;66.80;96242.94;5133968;27;20224;-73
2021/08/14 05:32:23;;;;;;;10.63;6.63;;;;;;;19.34;66.38;96242.38;5133635;27;20216;-74
2021/08/14 05:34:48;;;;;;;9.85;6.90;;;;;;;19.47;66.33;96237.25;5114900;27;20170;-74
2021/08/14 05:37:14;;;;;;;7.38;6.65;;;;;;;19.60;65.96;96240.06;5114766;27;20237;-74
2021/08/14 05:39:39;;;;;;;7.30;6.60;;;;;;;19.68;65.95;96245.22;5115191;27;20221;-74
2021/08/14 05:42:04;;;;;;;10.15;6.88;;;;;;;19.77;66.29;96240.63;5115017;27;20247;-74
2021/08/14 05:44:30;;;;;;;8.30;6.47;;;;;;;19.77;65.88;96244.09;5115015;27;20180;-73
2021/08/14 05:46:55;;;;;;;8.38;7.00;;;;;;;19.86;65.13;96247.41;5115199;27;20249;-74
2021/08/14 05:49:20;;;;;;;8.13;6.40;;;;;;;19.86;64.83;96247.41;5133429;27;20218;-74
2021/08/14 05:51:46;;;;;;;8.05;6.70;;;;;;;19.92;64.94;96251.94;5124455;27;20195;-73
2021/08/14 05:54:11;;;;;;;9.05;6.43;;;;;;;19.92;64.52;96251.94;5112473;27;20811;-74
2021/08/14 05:56:36;;;;;;;7.18;6.25;;;;;;;19.95;64.87;96245.47;5131797;27;20693;-74
2021/08/14 05:59:02;;;;;;;6.55;5.95;;;;;;;20.08;64.35;96250.88;5114690;27;20666;-74
2021/08/14 06:01:28;;;;;;;8.43;7.10;;;;;;;20.27;63.98;96249.41;5133055;27;20175;-74
2021/08/14 06:03:53;;;;;;;7.32;6.72;;;;;;;20.45;63.86;96251.59;5114847;27;20171;-74
2021/08/14 06:06:19;;;;;;;6.65;6.00;;;;;;;20.62;63.67;96253.75;5114857;27;20682;-74
2021/08/14 06:08:44;;;;;;;9.27;6.78;;;;;;;20.79;63.78;96258.72;5132919;27;20542;-73
2021/08/14 06:11:09;;;;;;;7.50;6.63;;;;;;;20.90;63.14;96256.34;5132676;27;20209;-74
2021/08/14 06:13:35;;;;;;;7.57;6.88;;;;;;;20.98;62.59;96252.75;5132650;27;20495;-73
2021/08/14 06:16:02;;;;;;;7.35;6.13;;;;;;;21.05;61.87;96258.88;5114531;27;20188;-73
2021/08/14 06:18:27;;;;;;;7.32;6.63;;;;;;;21.09;61.43;96251.38;5132840;27;20186;-75
2021/08/14 06:20:53;;;;;;;9.07;6.30;;;;;;;21.31;61.20;96252.13;5132821;27;20532;-73
2021/08/14 06:23:18;;;;;;;7.88;7.07;;;;;;;21.75;59.88;96256.94;5127311;27;20187;-74
2021/08/14 06:25:43;;;;;;;8.40;6.22;;;;;;;22.38;57.42;96256.63;5132827;27;20173;-76
2021/08/14 06:28:09;;;;;;;7.13;6.43;;;;;;;22.65;56.59;96249.47;5132589;27;20163;-73
2021/08/14 06:30:34;;;;;;;7.68;6.40;;;;;;;22.83;55.99;96249.66;5112376;28;20570;-74
2021/08/14 06:33:00;;;;;;;6.68;6.05;;;;;;;22.89;56.54;96247.03;5076933;28;20230;-75
2021/08/14 06:35:25;;;;;;;11.40;6.20;;;;;;;22.89;55.68;96247.03;5094042;28;20528;-75
2021/08/14 06:37:50;;;;;;;7.70;5.55;;;;;;;22.94;55.71;96251.69;5093778;28;20214;-75
2021/08/14 06:40:16;;;;;;;6.57;5.93;;;;;;;24.55;52.21;96252.25;5099184;28;20182;-75
2021/08/14 06:42:41;;;;;;;6.63;5.70;;;;;;;26.56;45.68;96255.69;5096655;28;20598;-75
2021/08/14 06:45:08;;;;;;;6.63;5.72;;;;;;;28.46;41.19;96260.06;5114612;28;20178;-77
2021/08/14 06:47:33;;;;;;;6.88;5.45;;;;;;;29.71;37.84;96262.31;5133591;28;20253;-75
2021/08/14 06:49:59;;;;;;;7.00;5.70;;;;;;;30.34;36.53;96261.63;5132581;28;20206;-75
2021/08/14 06:52:25;;;;;;;5.95;5.28;;;;;;;30.62;35.39;96259.69;5097222;28;20224;-75
2021/08/14 06:54:50;;;;;;;7.65;5.22;;;;;;;31.46;33.96;96257.03;5114104;28;20175;-74
2021/08/14 06:57:15;;;;;;;8.25;5.90;;;;;;;31.02;33.75;96265.38;5114001;28;20611;-74
2021/08/14 06:59:40;;;;;;;6.45;5.15;;;;;;;32.09;30.90;96260.44;5114776;28;20179;-74
2021/08/14 07:02:07;;;;;;;6.18;5.47;;;;;;;31.20;32.72;96256.06;5113924;28;20237;-74
2021/08/14 07:04:33;;;;;;;6.72;5.95;;;;;;;30.94;32.94;96262.38;5132730;28;20171;-78
2021/08/14 07:06:58;;;;;;;6.63;5.35;;;;;;;30.84;32.81;96259.63;5134998;27;20206;-77
2021/08/14 07:09:23;;;;;;;6.28;5.63;;;;;;;31.07;32.83;96258.41;5101611;27;20215;-76
2021/08/14 07:11:49;;;;;;;7.45;5.40;;;;;;;31.08;32.62;96255.44;5136375;27;20626;-76
2021/08/14 07:14:14;;;;;;;6.10;5.50;;;;;;;31.33;32.32;96259.38;5118267;27;20536;-77
2021/08/14 07:16:40;;;;;;;6.13;5.25;;;;;;;30.90;32.34;96263.94;5119337;27;20619;-79
2021/08/14 07:19:05;;;;;;;6.80;5.15;;;;;;;29.85;35.02;96258.16;5137081;27;20593;-77
2021/08/14 07:21:30;;;;;;;6.10;5.50;;;;;;;29.09;36.67;96259.94;5135956;27;20572;-76
2021/08/14 07:23:56;;;;;;;6.63;5.93;;;;;;;29.06;36.68;96250.50;5118049;27;20184;-76
2021/08/14 07:26:22;;;;;;;5.70;5.15;;;;;;;29.79;35.96;96251.16;5116900;27;20244;-76
2021/08/14 07:28:49;;;;;;;6.38;5.30;;;;;;;28.61;38.14;96254.13;5116023;27;20220;-76
2021/08/14 07:31:14;;;;;;;6.22;5.43;;;;;;;28.28;37.16;96259.47;5099881;27;20258;-76
2021/08/14 07:33:39;;;;;;;6.22;5.63;;;;;;;28.06;37.95;96251.31;5135238;27;20251;-76
2021/08/14 07:36:07;;;;;;;8.27;5.22;;;;;;;27.15;39.51;96251.16;5116775;27;20209;-75
2021/08/14 07:38:32;;;;;;;6.72;5.80;;;;;;;26.62;40.29;96256.63;5116695;27;20287;-76
2021/08/14 07:40:57;;;;;;;10.95;5.75;;;;;;;26.33;41.30;96252.94;5117616;27;20171;-76
2021/08/14 07:43:23;;;;;;;8.27;5.78;;;;;;;26.30;41.46;96251.56;5135782;27;20259;-75
2021/08/14 07:45:48;;;;;;;10.52;6.60;;;;;;;25.85;42.62;96252.03;5117375;27;20179;-76
2021/08/14 07:48:13;;;;;;;6.65;6.05;;;;;;;26.06;42.28;96250.72;5117563;27;20167;-76
2021/08/14 07:50:39;;;;;;;8.35;5.82;;;;;;;26.20;42.13;96254.78;5136019;27;20187;-76
2021/08/14 07:53:05;;;;;;;7.30;5.82;;;;;;;25.92;43.42;96251.94;5117008;27;20179;-76
2021/08/14 07:55:31;;;;;;;8.23;6.38;;;;;;;25.77;44.39;96246.22;5117383;27;20640;-76
2021/08/14 07:57:57;;;;;;;7.72;5.97;;;;;;;25.97;43.59;96252.06;5100019;27;20678;-76
2021/08/14 08:00:24;;;;;;;10.73;5.90;;;;;;;25.76;44.14;96247.25;5117285;27;20257;-77
2021/08/14 08:02:49;;;;;;;6.95;5.97;;;;;;;25.46;44.13;96248.03;5135364;27;20258;-76
2021/08/14 08:05:16;;;;;;;7.28;5.55;;;;;;;25.77;43.61;96247.03;5100186;27;20207;-77
2021/08/14 08:07:43;;;;;;;5.78;5.28;;;;;;;26.01;44.11;96253.25;5117089;27;20195;-76
2021/08/14 08:10:10;;;;;;;7.85;5.78;;;;;;;25.98;42.33;96245.72;5135572;27;20167;-76
2021/08/14 08:12:35;;;;;;;6.55;5.82;;;;;;;25.47;43.57;96244.34;5135007;27;20183;-76
2021/08/14 08:15:00;;;;;;;7.03;5.95;;;;;;;25.68;42.95;96241.19;5100071;27;20178;-76
2021/08/14 08:17:26;;;;;;;6.82;5.40;;;;;;;25.86;42.09;96247.53;5116201;27;20313;-75
2021/08/14 08:19:51;;;;;;;6.75;5.50;;;;;;;25.79;43.30;96244.94;5116918;27;20220;-76
2021/08/14 08:22:16;;;;;;;6.82;6.13;;;;;;;26.07;43.91;96244.38;5099573;27;20539;-76
2021/08/14 08:24:42;;;;;;;6.85;6.03;;;;;;;26.11;43.37;96245.53;5099623;27;20171;-76
2021/08/14 08:27:07;;;;;;;6.65;5.95;;;;;;;26.41;43.91;96239.34;5116500;27;20202;-75
2021/08/14 08:29:32;;;;;;;10.13;6.22;;;;;;;26.27;43.52;96242.19;5116697;27;20568;-75
2021/08/14 08:31:58;;;;;;;9.32;6.25;;;;;;;25.74;43.58;96241.38;5099219;27;20195;-76
2021/08/14 08:34:26;;;;;;;7.80;6.18;;;;;;;25.73;44.14;96231.75;5135025;27;20190;-75
2021/08/14 08:36:52;;;;;;;7.10;6.40;;;;;;;25.56;44.77;96232.34;5116817;27;20674;-75
2021/08/14 08:39:17;;;;;;;8.13;6.45;;;;;;;25.65;44.67;96233.66;5116949;27;20190;-75
2021/08/14 08:41:43;;;;;;;8.23;6.45;;;;;;;25.89;44.17;96236.44;5116121;27;20167;-74
2021/08/14 08:44:08;;;;;;;7.15;6.45;;;;;;;25.79;45.07;96233.50;5134804;27;20285;-75
2021/08/14 08:46:33;;;;;;;8.65;6.63;;;;;;;25.88;44.12;96232.13;5116350;27;20187;-75
2021/08/14 08:48:59;;;;;;;6.72;6.13;;;;;;;25.94;45.30;96229.38;5116587;27;20641;-75
2021/08/14 08:51:26;;;;;;;7.50;6.72;;;;;;;26.05;44.48;96235.78;5099029;27;20270;-75
2021/08/14 08:53:52;;;;;;;7.93;6.78;;;;;;;25.77;44.78;96230.25;5116278;27;20183;-75
2021/08/14 08:56:17;;;;;;;7.28;6.53;;;;;;;26.01;44.39;96229.31;5115932;27;20302;-75
2021/08/14 08:58:43;;;;;;;12.07;6.22;;;;;;;25.81;45.12;96226.94;5099213;27;20266;-76
2021/08/14 09:01:08;;;;;;;7.22;6.50;;;;;;;25.98;44.60;96229.75;5099119;27;20199;-76
2021/08/14 09:03:33;;;;;;;9.02;6.82;;;;;;;26.22;43.68;96231.41;5134105;27;20175;-76
2021/08/14 09:05:59;;;;;;;11.20;7.68;;;;;;;25.87;46.15;96226.00;5098745;27;20198;-76
2021/08/14 09:08:25;;;;;;;10.07;7.10;;;;;;;26.05;47.22;96235.78;5116021;27;20228;-76
2021/08/14 09:11:08;;;;;;;8.18;6.68;;;;;;;26.11;46.17;96229.56;5115841;27;20734;-76
2021/08/14 09:13:34;;;;;;;9.90;6.40;;;;;;;25.74;47.90;96230.72;5115834;27;20342;-76
2021/08/14 09:16:17;;;;;;;8.82;6.80;;;;;;;25.69;47.65;96226.84;5115819;27;20210;-76
2021/08/14 09:18:56;;;;;;;7.32;6.63;;;;;;;26.06;45.57;96225.94;5115717;27;20196;-76
2021/08/14 09:21:33;;;;;;;9.30;6.97;;;;;;;26.12;45.31;96225.84;5115394;27;20547;-76
2021/08/14 09:24:04;;;;;;;12.65;7.03;;;;;;;26.26;46.31;96221.13;5115695;27;20194;-76
2021/08/14 09:26:45;;;;;;;7.65;6.75;;;;;;;26.46;45.24;96216.31;5099308;27;20195;-76
2021/08/14 09:29:10;;;;;;;10.30;7.25;;;;;;;25.97;46.35;96228.13;5133234;27;20178;-76
2021/08/14 09:31:46;;;;;;;8.30;6.43;;;;;;;25.99;46.17;96228.72;5098248;27;20171;-76
2021/08/14 09:34:16;;;;;;;8.98;6.47;;;;;;;26.09;46.16;96225.50;5098573;27;20166;-76
2021/08/14 09:36:42;;;;;;;10.07;7.03;;;;;;;26.18;45.75;96219.63;5115235;27;20206;-76
2021/08/14 09:39:07;;;;;;;7.55;6.90;;;;;;;25.89;46.93;96223.16;5133777;27;20172;-76
2021/08/14 09:41:32;;;;;;;9.32;6.47;;;;;;;25.78;47.21;96222.06;5115242;27;20228;-76
2021/08/14 09:43:58;;;;;;;10.23;7.57;;;;;;;25.97;47.79;96215.66;5098200;27;20183;-76
2021/08/14 09:46:39;;;;;;;9.00;6.85;;;;;;;25.80;47.83;96213.88;5133522;27;20198;-75
2021/08/14 09:49:04;;;;;;;7.93;7.07;;;;;;;25.59;48.23;96205.31;5098192;27;20228;-76
2021/08/14 09:51:31;;;;;;;33.97;14.40;;;;;;;25.54;48.09;96207.84;5133220;27;20216;-76
2021/08/14 09:53:58;;;;;;;29.02;14.63;;;;;;;25.79;48.99;96204.25;5097963;27;20199;-76
2021/08/14 09:56:26;;;;;;;7.90;6.75;;;;;;;25.57;48.08;96196.75;5114759;27;20211;-76
2021/08/14 09:58:52;;;;;;;7.93;6.53;;;;;;;25.76;47.89;96194.88;5098204;27;20176;-76
2021/08/14 10:01:17;;;;;;;11.57;6.70;;;;;;;25.93;47.92;96200.34;5114762;27;20703;-76
2021/08/14 10:03:44;;;;;;;7.90;6.72;;;;;;;26.08;46.62;96198.06;5114858;27;20182;-76
2021/08/14 10:06:09;;;;;;;7.47;6.78;;;;;;;26.19;46.39;96201.78;5114755;27;20281;-76
2021/08/14 10:08:35;;;;;;;9.95;7.03;;;;;;;25.76;47.17;96194.06;5114858;27;20706;-76
2021/08/14 10:11:04;;;;;;;7.78;6.88;;;;;;;26.05;47.17;96187.88;5114633;27;20262;-76
2021/08/14 10:13:32;;;;;;;8.40;7.00;;;;;;;26.26;48.33;96197.19;5097862;27;20171;-76
2021/08/14 10:15:57;;;;;;;9.25;6.82;;;;;;;26.46;47.06;96192.34;5114437;27;20217;-76
2021/08/14 10:18:22;;;;;;;9.27;6.85;;;;;;;26.29;47.35;96195.91;5114677;27;20678;-76
2021/08/14 10:20:48;;;;;;;7.93;7.20;;;;;;;26.38;46.29;96189.22;5114595;27;20171;-76
2021/08/14 10:23:19;;;;;;;11.80;7.13;;;;;;;26.31;46.69;96185.81;5132690;27;20638;-76
2021/08/14 10:25:45;;;;;;;10.02;7.00;;;;;;;26.47;46.04;96179.84;5114355;27;20174;-76
2021/08/14 10:28:11;;;;;;;9.27;7.00;;;;;;;26.38;46.31;96167.91;5114556;27;20262;-76
2021/08/14 10:30:52;;;;;;;7.88;6.57;;;;;;;27.02;46.08;96179.41;5114539;27;20658;-76
2021/08/14 10:33:27;;;;;;;8.88;7.15;;;;;;;27.19;46.51;96175.00;5114592;27;20250;-76
2021/08/14 10:35:53;;;;;;;7.82;7.03;;;;;;;26.93;44.55;96168.31;5132618;27;20694;-75
2021/08/14 10:38:41;;;;;;;11.00;7.50;;;;;;;26.98;44.31;96172.94;5132478;27;20203;-76
2021/08/14 10:41:08;;;;;;;8.93;7.18;;;;;;;27.29;44.71;96172.50;5132492;27;20170;-76
2021/08/14 10:44:03;;;;;;;8.40;7.15;;;;;;;27.26;45.09;96161.53;5132481;27;20175;-76
2021/08/14 10:46:31;;;;;;;7.78;7.05;;;;;;;26.99;45.41;96161.22;5100258;28;20203;-76
2021/08/14 10:48:58;;;;;;;8.10;6.70;;;;;;;26.66;44.68;96160.00;5114092;28;20254;-76
2021/08/14 10:51:23;;;;;;;10.15;7.85;;;;;;;26.58;45.35;96162.22;5114119;28;20498;-77
2021/08/14 10:53:51;;;;;;;10.32;7.80;;;;;;;26.84;44.38;96159.06;5097136;28;20607;-76
2021/08/14 10:56:48;;;;;;;9.82;7.00;;;;;;;27.02;43.95;96153.56;5114053;28;20590;-76
2021/08/14 10:59:40;;;;;;;8.95;6.97;;;;;;;27.09;44.95;96150.81;5012302;28;20201;-76
2021/08/14 11:02:09;;;;;;;8.85;6.97;;;;;;;27.29;44.28;96156.50;5028458;28;20178;-76
2021/08/14 11:04:39;;;;;;;7.97;7.28;;;;;;;27.31;45.00;96157.13;4995566;28;20210;-77
2021/08/14 11:07:30;;;;;;;9.20;7.00;;;;;;;27.33;43.14;96147.00;4992810;28;20713;-76
2021/08/14 11:09:56;;;;;;;7.75;6.65;;;;;;;27.54;43.47;96155.38;4991509;28;20187;-76
2021/08/14 11:12:40;;;;;;;12.55;7.55;;;;;;;27.68;44.11;96146.06;5028667;28;20171;-77
2021/08/14 11:15:25;;;;;;;9.15;7.60;;;;;;;27.84;44.62;96144.47;5012682;28;20182;-76
2021/08/14 11:18:01;;;;;;;10.00;7.22;;;;;;;27.89;42.58;96136.53;5028795;28;20213;-76
2021/08/14 11:20:34;;;;;;;8.90;8.00;;;;;;;27.81;42.46;96139.59;5028954;28;20178;-76
2021/08/14 11:23:00;;;;;;;9.85;7.28;;;;;;;27.52;42.72;96136.13;5028652;28;20183;-77
2021/08/14 11:25:30;;;;;;;10.00;7.55;;;;;;;27.81;43.07;96135.06;5029003;28;20182;-76
2021/08/14 11:28:00;;;;;;;8.20;7.50;;;;;;;28.06;43.58;96134.66;5012335;28;20194;-76
2021/08/14 11:30:30;;;;;;;8.65;7.75;;;;;;;28.21;41.78;96126.09;5028584;28;20203;-76